createdAt,value
2019-05-01T00:02:17.464Z,4.20
2019-05-01T00:05:11.710Z,4.30
2019-05-01T00:07:40.944Z,4.30
2019-05-01T00:10:10.589Z,4.40
2019-05-01T00:12:39.699Z,4.40
2019-05-01T00:15:09.703Z,4.40
2019-05-01T00:17:38.891Z,4.50
2019-05-01T00:20:08.074Z,4.60
2019-05-01T00:22:37.132Z,4.60
2019-05-01T00:25:06.397Z,4.60
2019-05-01T00:27:35.542Z,4.70
2019-05-01T00:30:06.879Z,4.70
2019-05-01T00:32:35.868Z,4.80
2019-05-01T00:35:05.834Z,4.80
2019-05-01T00:37:34.926Z,4.80
2019-05-01T00:40:04.320Z,4.80
2019-05-01T00:42:33.351Z,4.90
2019-05-01T00:45:02.504Z,4.90
2019-05-01T00:47:31.533Z,5.00
2019-05-01T00:50:00.663Z,5.00
2019-05-01T00:52:29.851Z,5.10
2019-05-01T00:55:17.101Z,5.20
2019-05-01T00:57:54.410Z,5.20
2019-05-01T01:00:43.475Z,5.30
2019-05-01T01:03:12.761Z,5.40
2019-05-01T01:05:41.835Z,5.50
2019-05-01T01:08:11.460Z,5.50
2019-05-01T01:10:40.569Z,5.60
2019-05-01T01:13:09.723Z,5.50
2019-05-01T01:15:38.880Z,5.60
2019-05-01T01:18:08.028Z,5.60
2019-05-01T01:20:37.187Z,5.60
2019-05-01T01:23:06.383Z,5.60
2019-05-01T01:25:35.554Z,5.60
2019-05-01T01:28:04.747Z,5.60
2019-05-01T01:30:34.051Z,5.60
2019-05-01T01:33:03.263Z,5.70
2019-05-01T01:35:32.503Z,5.80
2019-05-01T01:38:01.848Z,5.80
2019-05-01T01:40:31.843Z,5.90
2019-05-01T01:43:20.151Z,6.00
2019-05-01T01:45:50.938Z,6.10
2019-05-01T01:48:20.109Z,6.20
2019-05-01T01:50:49.804Z,6.30
2019-05-01T01:53:21.775Z,6.40
2019-05-01T01:55:51.692Z,6.40
2019-05-01T01:58:22.000Z,6.50
2019-05-01T02:01:09.896Z,6.60
2019-05-01T02:03:41.967Z,6.60
2019-05-01T02:06:11.467Z,6.70
2019-05-01T02:08:40.951Z,6.80
2019-05-01T02:11:10.119Z,6.90
2019-05-01T02:13:39.884Z,6.90
2019-05-01T02:16:09.090Z,6.90
2019-05-01T02:18:38.292Z,7.00
2019-05-01T02:21:07.425Z,7.00
2019-05-01T02:23:36.547Z,7.10
2019-05-01T02:26:07.111Z,7.10
2019-05-01T02:28:43.188Z,7.20
2019-05-01T02:31:28.078Z,7.30
2019-05-01T02:33:53.181Z,7.30
2019-05-01T02:36:23.542Z,7.40
2019-05-01T02:38:54.662Z,7.50
2019-05-01T02:41:27.446Z,7.50
2019-05-01T02:44:01.361Z,7.60
2019-05-01T02:46:32.202Z,7.70
2019-05-01T02:49:08.070Z,7.70
2019-05-01T02:51:39.276Z,7.80
2019-05-01T02:54:10.354Z,7.80
2019-05-01T02:56:52.581Z,7.90
2019-05-01T02:59:23.262Z,7.90
2019-05-01T03:01:52.754Z,8.00
2019-05-01T03:04:22.347Z,8.00
2019-05-01T03:06:51.985Z,8.00
2019-05-01T03:09:21.809Z,8.10
2019-05-01T03:11:53.953Z,8.10
2019-05-01T03:14:26.031Z,8.10
2019-05-01T03:16:59.252Z,8.10
2019-05-01T03:19:53.536Z,8.20
2019-05-01T03:22:38.998Z,8.20
2019-05-01T03:25:08.715Z,8.30
2019-05-01T03:27:37.860Z,8.40
2019-05-01T03:30:07.165Z,8.40
2019-05-01T03:32:36.539Z,8.50
2019-05-01T03:35:05.968Z,8.50
2019-05-01T03:37:35.417Z,8.60
2019-05-01T03:40:04.553Z,8.60
2019-05-01T03:42:33.759Z,8.60
2019-05-01T03:45:02.997Z,8.60
2019-05-01T03:47:32.231Z,8.70
2019-05-01T03:50:02.081Z,8.70
2019-05-01T03:52:31.567Z,8.70
2019-05-01T03:55:01.043Z,8.70
2019-05-01T03:57:30.377Z,8.70
2019-05-01T03:59:59.636Z,8.70
2019-05-01T04:02:39.366Z,8.70
2019-05-01T04:05:08.563Z,8.60
2019-05-01T04:07:38.493Z,8.60
2019-05-01T04:10:08.321Z,8.60
2019-05-01T04:12:37.806Z,8.60
2019-05-01T04:15:07.329Z,8.60
2019-05-01T04:17:45.433Z,8.60
2019-05-01T04:20:15.301Z,8.60
2019-05-01T04:22:45.058Z,8.70
2019-05-01T04:25:14.265Z,8.70
2019-05-01T04:27:46.011Z,8.70
2019-05-01T04:30:30.386Z,8.80
2019-05-01T04:33:02.169Z,8.80
2019-05-01T04:35:49.008Z,8.80
2019-05-01T04:38:18.561Z,8.90
2019-05-01T04:40:47.987Z,9.00
2019-05-01T04:43:17.414Z,9.00
2019-05-01T04:45:46.789Z,9.10
2019-05-01T04:48:15.890Z,9.20
2019-05-01T04:50:45.108Z,9.30
2019-05-01T04:53:14.638Z,9.50
2019-05-01T04:55:43.875Z,9.60
2019-05-01T04:58:13.654Z,9.80
2019-05-01T05:00:43.236Z,9.90
2019-05-01T05:03:16.879Z,9.90
2019-05-01T05:05:46.421Z,10.00
2019-05-01T05:08:16.263Z,10.10
2019-05-01T05:10:46.236Z,10.10
2019-05-01T05:13:23.663Z,10.20
2019-05-01T05:16:01.494Z,10.20
2019-05-01T05:18:40.239Z,10.30
2019-05-01T05:21:09.819Z,10.40
2019-05-01T05:23:39.092Z,10.50
2019-05-01T05:26:08.287Z,10.70
2019-05-01T05:28:38.944Z,10.90
2019-05-01T05:31:08.839Z,11.00
2019-05-01T05:33:39.732Z,11.20
2019-05-01T05:36:10.083Z,11.20
2019-05-01T05:39:06.419Z,11.20
2019-05-01T05:41:36.648Z,11.20
2019-05-01T05:44:05.815Z,11.20
2019-05-01T05:46:35.043Z,11.10
2019-05-01T05:49:05.113Z,11.00
2019-05-01T05:51:42.906Z,11.00
2019-05-01T05:54:31.438Z,10.90
2019-05-01T05:57:07.069Z,10.90
2019-05-01T05:59:40.711Z,11.00
2019-05-01T06:02:28.456Z,11.10
2019-05-01T06:05:20.801Z,11.30
2019-05-01T06:08:10.815Z,11.40
2019-05-01T06:11:00.178Z,11.50
2019-05-01T06:13:47.795Z,11.60
2019-05-01T06:16:25.327Z,11.80
2019-05-01T06:19:09.760Z,12.00
2019-05-01T06:21:48.622Z,12.10
2019-05-01T06:24:28.520Z,12.20
2019-05-01T06:26:58.037Z,12.20
2019-05-01T06:29:30.937Z,12.10
2019-05-01T06:31:59.811Z,12.00
2019-05-01T06:34:29.820Z,11.90
2019-05-01T06:36:59.551Z,11.80
2019-05-01T06:39:28.816Z,11.80
2019-05-01T06:41:58.547Z,11.80
2019-05-01T06:44:52.318Z,12.00
2019-05-01T06:47:52.264Z,12.30
2019-05-01T06:50:37.162Z,12.90
2019-05-01T06:53:06.065Z,13.40
2019-05-01T06:55:38.089Z,13.80
2019-05-01T06:58:07.651Z,14.00
2019-05-01T07:00:39.141Z,14.20
2019-05-01T07:03:10.513Z,14.40
2019-05-01T07:05:40.941Z,14.60
2019-05-01T07:08:23.769Z,14.70
2019-05-01T07:10:43.939Z,14.90
2019-05-01T07:13:12.377Z,15.00
2019-05-01T07:15:41.571Z,15.10
2019-05-01T07:18:11.799Z,15.20
2019-05-01T07:20:53.278Z,15.20
2019-05-01T07:23:24.484Z,15.40
2019-05-01T07:25:54.414Z,15.70
2019-05-01T07:28:28.895Z,15.60
2019-05-01T07:31:04.814Z,15.40
2019-05-01T07:33:33.095Z,15.30
2019-05-01T07:36:07.562Z,15.20
2019-05-01T07:38:38.201Z,15.20
2019-05-01T07:41:05.667Z,15.20
2019-05-01T07:44:01.024Z,15.30
2019-05-01T07:46:54.388Z,15.60
2019-05-01T07:49:32.172Z,16.00
2019-05-01T07:52:01.804Z,16.30
2019-05-01T07:54:31.178Z,16.60
2019-05-01T07:57:03.283Z,16.80
2019-05-01T07:59:31.216Z,16.90
2019-05-01T08:02:03.179Z,17.30
2019-05-01T08:04:36.548Z,17.40
2019-05-01T08:07:03.540Z,17.50
2019-05-01T08:09:32.754Z,17.80
2019-05-01T08:12:02.036Z,18.00
2019-05-01T08:14:31.462Z,18.10
2019-05-01T08:17:02.740Z,18.10
2019-05-01T08:19:47.247Z,18.20
2019-05-01T08:22:21.865Z,18.20
2019-05-01T08:24:53.851Z,18.60
2019-05-01T08:27:40.987Z,18.80
2019-05-01T08:30:24.075Z,18.80
2019-05-01T08:33:16.074Z,18.90
2019-05-01T08:35:46.017Z,19.10
2019-05-01T08:38:16.266Z,19.40
2019-05-01T08:40:45.442Z,19.30
2019-05-01T08:43:17.994Z,19.40
2019-05-01T08:45:59.830Z,19.50
2019-05-01T08:48:46.586Z,19.50
2019-05-01T08:51:16.398Z,19.20
2019-05-01T08:53:45.620Z,19.00
2019-05-01T08:56:17.127Z,18.70
2019-05-01T08:58:51.454Z,18.30
2019-05-01T09:01:20.796Z,17.80
2019-05-01T09:03:54.168Z,17.40
2019-05-01T09:06:34.057Z,17.10
2019-05-01T09:08:51.992Z,16.90
2019-05-01T09:11:21.091Z,16.60
2019-05-01T09:13:50.312Z,16.60
2019-05-01T09:16:23.369Z,16.70
2019-05-01T09:18:53.278Z,17.00
2019-05-01T09:21:22.561Z,17.50
2019-05-01T09:23:53.247Z,17.90
2019-05-01T09:26:40.383Z,18.30
2019-05-01T09:29:16.000Z,19.00
2019-05-01T09:31:44.426Z,19.20
2019-05-01T09:34:13.938Z,19.20
2019-05-01T09:36:44.483Z,19.00
2019-05-01T09:39:15.298Z,19.10
2019-05-01T09:41:47.594Z,19.30
2019-05-01T09:44:17.456Z,19.40
2019-05-01T09:46:46.631Z,19.80
2019-05-01T09:49:18.197Z,20.00
2019-05-01T09:51:56.207Z,19.90
2019-05-01T09:54:46.789Z,19.50
2019-05-01T09:57:15.065Z,19.10
2019-05-01T09:59:44.448Z,18.60
2019-05-01T10:02:14.696Z,18.20
2019-05-01T10:04:43.829Z,18.00
2019-05-01T10:07:13.080Z,17.90
2019-05-01T10:09:47.263Z,17.90
2019-05-01T10:12:16.052Z,18.00
2019-05-01T10:14:45.397Z,18.10
2019-05-01T10:17:14.507Z,18.10
2019-05-01T10:19:43.891Z,18.30
2019-05-01T10:22:16.235Z,18.80
2019-05-01T10:24:45.455Z,18.90
2019-05-01T10:27:17.400Z,19.20
2019-05-01T10:30:04.435Z,19.40
2019-05-01T10:32:42.943Z,19.60
2019-05-01T10:35:41.907Z,19.60
2019-05-01T10:38:04.693Z,19.60
2019-05-01T10:40:33.982Z,19.70
2019-05-01T10:43:02.799Z,19.80
2019-05-01T10:45:31.993Z,19.90
2019-05-01T10:48:01.166Z,19.90
2019-05-01T10:50:31.334Z,20.00
2019-05-01T10:53:00.358Z,20.20
2019-05-01T10:55:29.567Z,20.20
2019-05-01T10:57:58.716Z,20.20
2019-05-01T11:00:28.042Z,20.40
2019-05-01T11:02:57.233Z,20.70
2019-05-01T11:05:26.815Z,20.80
2019-05-01T11:07:55.963Z,20.60
2019-05-01T11:10:25.041Z,20.80
2019-05-01T11:12:54.078Z,20.90
2019-05-01T11:15:23.263Z,20.90
2019-05-01T11:17:54.788Z,21.00
2019-05-01T11:20:23.958Z,20.90
2019-05-01T11:22:53.248Z,20.90
2019-05-01T11:25:23.123Z,20.90
2019-05-01T11:27:52.296Z,20.80
2019-05-01T11:30:21.595Z,20.90
2019-05-01T11:33:02.837Z,21.10
2019-05-01T11:35:52.869Z,21.20
2019-05-01T11:38:40.208Z,21.20
2019-05-01T11:41:22.445Z,21.30
2019-05-01T11:43:51.719Z,21.20
2019-05-01T11:46:20.922Z,21.30
2019-05-01T11:48:50.444Z,21.70
2019-05-01T11:51:20.635Z,21.80
2019-05-01T11:53:49.766Z,22.10
2019-05-01T11:56:19.034Z,22.10
2019-05-01T11:58:48.131Z,22.00
2019-05-01T12:01:18.952Z,22.20
2019-05-01T12:03:48.137Z,22.30
2019-05-01T12:06:22.986Z,22.40
2019-05-01T12:08:48.253Z,22.40
2019-05-01T12:11:19.163Z,22.40
2019-05-01T12:13:49.813Z,22.40
2019-05-01T12:16:44.368Z,22.20
2019-05-01T12:19:13.672Z,22.20
2019-05-01T12:21:42.921Z,22.40
2019-05-01T12:24:12.074Z,22.40
2019-05-01T12:26:42.201Z,22.40
2019-05-01T12:29:11.391Z,22.50
2019-05-01T12:31:40.661Z,22.50
2019-05-01T12:34:09.946Z,22.50
2019-05-01T12:36:40.267Z,22.50
2019-05-01T12:39:13.198Z,22.50
2019-05-01T12:41:48.198Z,22.60
2019-05-01T12:44:17.459Z,22.50
2019-05-01T12:46:52.991Z,22.40
2019-05-01T12:49:22.187Z,22.30
2019-05-01T12:51:54.071Z,22.50
2019-05-01T12:54:30.912Z,22.50
2019-05-01T12:57:00.161Z,22.50
2019-05-01T12:59:29.348Z,22.40
2019-05-01T13:01:58.364Z,22.30
2019-05-01T13:04:27.550Z,22.30
2019-05-01T13:06:58.809Z,22.40
2019-05-01T13:09:28.297Z,22.30
2019-05-01T13:11:57.745Z,22.10
2019-05-01T13:14:27.259Z,21.90
2019-05-01T13:16:56.433Z,21.80
2019-05-01T13:19:25.596Z,21.70
2019-05-01T13:21:54.904Z,21.80
2019-05-01T13:24:24.036Z,21.80
2019-05-01T13:27:08.059Z,21.60
2019-05-01T13:29:51.862Z,21.60
2019-05-01T13:32:38.948Z,21.60
2019-05-01T13:35:08.520Z,21.50
2019-05-01T13:37:38.117Z,21.40
2019-05-01T13:40:08.917Z,21.30
2019-05-01T13:42:38.344Z,21.20
2019-05-01T13:45:07.977Z,21.20
2019-05-01T13:47:37.138Z,21.10
2019-05-01T13:50:06.975Z,21.00
2019-05-01T13:52:36.067Z,20.90
2019-05-01T13:55:05.558Z,20.90
2019-05-01T13:57:34.792Z,20.90
2019-05-01T14:00:04.471Z,20.90
2019-05-01T14:02:33.647Z,21.00
2019-05-01T14:05:02.846Z,20.80
2019-05-01T14:07:32.003Z,20.80
2019-05-01T14:10:01.135Z,20.80
2019-05-01T14:12:30.337Z,20.80
2019-05-01T14:14:59.507Z,20.80
2019-05-01T14:17:28.659Z,20.90
2019-05-01T14:20:03.957Z,20.90
2019-05-01T14:23:01.027Z,20.90
2019-05-01T14:25:49.205Z,20.90
2019-05-01T14:28:18.319Z,20.80
2019-05-01T14:30:48.400Z,20.70
2019-05-01T14:33:17.435Z,20.80
2019-05-01T14:35:46.651Z,20.80
2019-05-01T14:38:16.861Z,20.80
2019-05-01T14:40:46.206Z,20.80
2019-05-01T14:43:15.415Z,20.70
2019-05-01T14:45:44.603Z,20.70
2019-05-01T14:48:13.800Z,20.80
2019-05-01T14:50:43.068Z,20.80
2019-05-01T14:53:12.476Z,20.80
2019-05-01T14:55:41.672Z,20.90
2019-05-01T14:58:10.739Z,20.90
2019-05-01T15:00:39.951Z,21.00
2019-05-01T15:03:09.136Z,21.00
2019-05-01T15:05:38.268Z,21.10
2019-05-01T15:08:07.539Z,21.20
2019-05-01T15:10:37.738Z,21.10
2019-05-01T15:13:14.922Z,21.00
2019-05-01T15:15:55.540Z,20.90
2019-05-01T15:18:43.702Z,20.80
2019-05-01T15:21:12.863Z,20.70
2019-05-01T15:23:53.099Z,20.60
2019-05-01T15:26:12.996Z,20.60
2019-05-01T15:28:42.103Z,20.50
2019-05-01T15:31:11.337Z,20.50
2019-05-01T15:33:40.409Z,20.40
2019-05-01T15:36:09.647Z,20.40
2019-05-01T15:38:46.642Z,20.40
2019-05-01T15:41:44.004Z,20.30
2019-05-01T15:44:25.459Z,20.10
2019-05-01T15:46:54.555Z,19.90
2019-05-01T15:49:23.664Z,19.70
2019-05-01T15:51:52.873Z,19.50
2019-05-01T15:54:22.035Z,19.30
2019-05-01T15:56:52.390Z,19.10
2019-05-01T15:59:21.482Z,19.00
2019-05-01T16:01:51.577Z,18.80
2019-05-01T16:04:20.611Z,18.80
2019-05-01T16:06:50.646Z,18.70
2019-05-01T16:09:21.950Z,18.60
2019-05-01T16:12:12.117Z,18.60
2019-05-01T16:14:42.468Z,18.50
2019-05-01T16:17:11.707Z,18.40
2019-05-01T16:19:44.016Z,18.40
2019-05-01T16:22:13.279Z,18.30
2019-05-01T16:24:42.459Z,18.30
2019-05-01T16:27:11.949Z,18.10
2019-05-01T16:29:41.847Z,18.10
2019-05-01T16:32:14.316Z,18.00
2019-05-01T16:34:48.033Z,17.90
2019-05-01T16:37:17.318Z,17.90
2019-05-01T16:40:05.140Z,17.80
2019-05-01T16:42:43.420Z,17.80
2019-05-01T16:45:13.987Z,17.70
2019-05-01T16:47:44.476Z,17.60
2019-05-01T16:50:14.996Z,17.60
2019-05-01T16:52:44.596Z,17.50
2019-05-01T16:55:14.080Z,17.40
2019-05-01T16:57:44.068Z,17.40
2019-05-01T17:00:15.633Z,17.30
2019-05-01T17:03:02.562Z,17.20
2019-05-01T17:05:56.230Z,17.20
2019-05-01T17:08:40.255Z,17.10
2019-05-01T17:11:10.568Z,17.00
2019-05-01T17:13:39.770Z,17.00
2019-05-01T17:16:09.037Z,16.90
2019-05-01T17:18:38.221Z,16.80
2019-05-01T17:21:07.486Z,16.70
2019-05-01T17:23:36.720Z,16.60
2019-05-01T17:26:05.892Z,16.60
2019-05-01T17:28:35.100Z,16.50
2019-05-01T17:31:05.552Z,16.40
2019-05-01T17:33:34.727Z,16.30
2019-05-01T17:36:03.968Z,16.20
2019-05-01T17:38:33.047Z,16.20
2019-05-01T17:41:02.414Z,16.10
2019-05-01T17:43:31.600Z,15.90
2019-05-01T17:46:00.812Z,15.80
2019-05-01T17:48:33.652Z,15.60
2019-05-01T17:51:01.947Z,15.50
2019-05-01T17:53:31.285Z,15.40
2019-05-01T17:56:00.476Z,15.20
2019-05-01T17:58:29.499Z,15.10
2019-05-01T18:01:27.567Z,15.00
2019-05-01T18:04:19.052Z,14.90
2019-05-01T18:06:49.928Z,14.80
2019-05-01T18:09:19.131Z,14.70
2019-05-01T18:11:52.320Z,14.60
2019-05-01T18:14:19.128Z,14.50
2019-05-01T18:16:48.315Z,14.30
2019-05-01T18:19:17.463Z,14.20
2019-05-01T18:21:51.691Z,14.10
2019-05-01T18:24:45.803Z,14.00
2019-05-01T18:27:32.846Z,13.90
2019-05-01T18:30:06.159Z,13.80
2019-05-01T18:32:41.511Z,13.60
2019-05-01T18:35:14.099Z,13.50
2019-05-01T18:37:47.763Z,13.40
2019-05-01T18:40:23.488Z,13.30
2019-05-01T18:42:52.650Z,13.30
2019-05-01T18:45:47.517Z,13.10
2019-05-01T18:48:17.160Z,13.10
2019-05-01T18:50:49.511Z,13.00
2019-05-01T18:53:17.419Z,12.90
2019-05-01T18:55:46.595Z,12.80
2019-05-01T18:58:15.812Z,12.70
2019-05-01T19:00:45.110Z,12.60
2019-05-01T19:03:14.211Z,12.50
2019-05-01T19:05:46.865Z,12.50
2019-05-01T19:08:14.203Z,12.40
2019-05-01T19:10:43.306Z,12.40
2019-05-01T19:13:13.382Z,12.30
2019-05-01T19:15:42.753Z,12.20
2019-05-01T19:18:11.934Z,12.10
2019-05-01T19:20:41.046Z,12.00
2019-05-01T19:23:10.916Z,12.00
2019-05-01T19:25:40.347Z,11.90
2019-05-01T19:28:09.549Z,11.80
2019-05-01T19:30:38.743Z,11.80
2019-05-01T19:33:07.942Z,11.70
2019-05-01T19:35:37.032Z,11.60
2019-05-01T19:38:06.412Z,11.60
2019-05-01T19:40:35.619Z,11.50
2019-05-01T19:43:04.763Z,11.50
2019-05-01T19:45:33.931Z,11.40
2019-05-01T19:48:03.089Z,11.30
2019-05-01T19:50:32.148Z,11.30
2019-05-01T19:53:01.295Z,11.20
2019-05-01T19:55:30.471Z,11.10
2019-05-01T19:57:59.684Z,11.10
2019-05-01T20:01:12.008Z,11.00
2019-05-01T20:03:41.246Z,11.00
2019-05-01T20:06:10.319Z,10.90
2019-05-01T20:08:39.463Z,10.90
2019-05-01T20:11:09.768Z,10.80
2019-05-01T20:13:39.050Z,10.80
2019-05-01T20:16:09.144Z,10.80
2019-05-01T20:18:38.309Z,10.70
2019-05-01T20:21:07.967Z,10.60
2019-05-01T20:23:37.052Z,10.60
2019-05-01T20:26:06.234Z,10.60
2019-05-01T20:28:37.214Z,10.50
2019-05-01T20:31:06.133Z,10.50
2019-05-01T20:33:38.658Z,10.50
2019-05-01T20:36:06.664Z,10.50
2019-05-01T20:38:35.855Z,10.40
2019-05-01T20:41:05.068Z,10.40
2019-05-01T20:43:38.119Z,10.40
2019-05-01T20:46:06.944Z,10.40
2019-05-01T20:48:35.899Z,10.40
2019-05-01T20:51:05.066Z,10.30
2019-05-01T20:53:34.120Z,10.30
2019-05-01T20:56:22.351Z,10.30
2019-05-01T20:58:51.491Z,10.30
2019-05-01T21:01:24.274Z,10.20
2019-05-01T21:04:25.524Z,10.20
2019-05-01T21:07:15.481Z,10.20
2019-05-01T21:09:47.863Z,10.10
2019-05-01T21:12:15.980Z,10.00
2019-05-01T21:14:49.392Z,10.00
2019-05-01T21:17:15.964Z,9.90
2019-05-01T21:19:44.987Z,9.90
2019-05-01T21:22:14.508Z,9.90
2019-05-01T21:24:44.338Z,9.90
2019-05-01T21:27:13.773Z,9.80
2019-05-01T21:29:44.518Z,9.80
2019-05-01T21:32:13.770Z,9.80
2019-05-01T21:34:43.509Z,9.70
2019-05-01T21:37:12.803Z,9.70
2019-05-01T21:39:43.675Z,9.70
2019-05-01T21:42:15.961Z,9.60
2019-05-01T21:44:43.843Z,9.60
2019-05-01T21:47:13.927Z,9.60
2019-05-01T21:49:43.262Z,9.60
2019-05-01T21:52:13.480Z,9.50
2019-05-01T21:54:42.951Z,9.40
2019-05-01T21:57:17.237Z,9.40
2019-05-01T21:59:44.838Z,9.40
2019-05-01T22:02:13.725Z,9.30
2019-05-01T22:04:42.873Z,9.30
2019-05-01T22:07:12.030Z,9.20
2019-05-01T22:09:45.518Z,9.20
2019-05-01T22:12:12.988Z,9.20
2019-05-01T22:14:55.738Z,9.20
2019-05-01T22:17:33.413Z,9.10
2019-05-01T22:20:02.882Z,9.10
2019-05-01T22:22:45.942Z,9.10
2019-05-01T22:25:25.150Z,9.00
2019-05-01T22:28:00.610Z,9.00
2019-05-01T22:30:42.275Z,9.00
2019-05-01T22:33:10.500Z,8.90
2019-05-01T22:35:43.256Z,8.90
2019-05-01T22:38:12.437Z,8.80
2019-05-01T22:41:06.994Z,8.80
2019-05-01T22:43:34.697Z,8.80
2019-05-01T22:46:05.022Z,8.80
2019-05-01T22:48:34.276Z,8.70
2019-05-01T22:51:10.415Z,8.70
2019-05-01T22:53:39.618Z,8.70
2019-05-01T22:56:08.707Z,8.60
2019-05-01T22:58:37.746Z,8.60
2019-05-01T23:01:07.136Z,8.60
2019-05-01T23:03:45.292Z,8.60
2019-05-01T23:06:14.607Z,8.60
2019-05-01T23:08:43.756Z,8.60
2019-05-01T23:11:19.637Z,8.50
2019-05-01T23:13:43.912Z,8.50
2019-05-01T23:16:13.450Z,8.50
2019-05-01T23:18:42.587Z,8.60
2019-05-01T23:21:14.647Z,8.70
2019-05-01T23:23:42.456Z,8.70
2019-05-01T23:26:16.018Z,8.80
2019-05-01T23:28:42.411Z,9.00
2019-05-01T23:31:11.773Z,9.10
2019-05-01T23:33:40.886Z,9.20
2019-05-01T23:36:22.365Z,9.40
2019-05-01T23:38:40.984Z,9.50
2019-05-01T23:41:10.115Z,9.60
2019-05-01T23:43:39.212Z,9.60
2019-05-01T23:46:08.424Z,9.60
2019-05-01T23:48:37.458Z,9.60
2019-05-01T23:51:06.535Z,9.50
2019-05-01T23:53:36.261Z,9.50
2019-05-01T23:56:05.410Z,9.40
2019-05-01T23:58:34.490Z,9.40
